Terminal Aerodrome Forecast
Issued by NWS

Home | Current Version | Previous Version | Text Only | Print | Product List | Glossary Off
Versions: 1 2 3 4 5 6 7 8 9 10 11 12 13 14 15 16 17 18 19 20 21 22 23

000
FTUS41 KCLE 130500
TAFFDY
TAF
KFDY 130529Z 1306/1406 VRB03KT P6SM SCT028 OVC035
     FM130900 28005KT 5SM -RA BR OVC028
     FM131200 28010G20KT P6SM OVC020
     FM131800 32008KT P6SM BKN035
     FM132100 VRB03KT P6SM SCT035=

USA.gov is the U.S. government's official web portal to all federal, state and local government web resources and services.